Lystrup, Denmark
Current Conditions -  °F | °C
As of 10:50 AM on Friday 19 Dec 2014 (Local Time) from EKAH Reporting Station
Scattered Clouds Scattered Clouds  
Wind Chill: 39°   Ceiling: Unl
Heat Index: 45°   Visibility: 6mi
Dew Point: 37°   Wind: 12mph
Humidity: 76%   Direction: 250°WSW
Pressure: 29.41"   Gusts: NA
Location:  56.24°N, 10.24°E
Report Text: EKAH 190950Z AUTO 25010KT 210V280 9999NDV FEW023/// SCT041///07/03 Q0996
Loading
Personal Weather Stations






























Interactive Weather Map New forecast layout! Learn more

10-Day Weather Forecast

Advertisements
Track Severe Weather on mobile